Time;durP1;ratioP1;P1;durP2;ratioP2;P2;SDS_P1;SDS_P2;PMS_P1;PMS_P2;Temp;Humidity;BMP_temperature;BMP_pressure;BME280_temperature;BME280_humidity;BME280_pressure;Samples;Min_cycle;Max_cycle;Signal;HPM_P1;HPM_P2
2021/06/14 00:00:56;;;;;;;9.87;7.13;;;;;;;16.26;60.79;102109.38;5059127;28;20248;-66
2021/06/14 00:03:21;;;;;;;9.30;7.40;;;;;;;16.43;60.51;102105.13;5059377;28;20439;-66
2021/06/14 00:05:47;;;;;;;8.00;6.73;;;;;;;16.32;60.16;102093.66;5059354;28;20169;-66
2021/06/14 00:08:17;;;;;;;10.20;8.27;;;;;;;16.36;60.50;102092.81;5059472;28;20189;-66
2021/06/14 00:10:45;;;;;;;44.37;31.93;;;;;;;16.27;59.80;102093.59;5059476;28;20193;-67
2021/06/14 00:13:11;;;;;;;9.23;8.03;;;;;;;16.33;60.28;102096.28;5058949;28;20412;-68
2021/06/14 00:15:38;;;;;;;14.53;11.67;;;;;;;16.24;59.91;102085.69;5059143;28;20412;-65
2021/06/14 00:18:04;;;;;;;44.03;28.77;;;;;;;16.37;59.33;102093.69;5058481;28;20400;-66
2021/06/14 00:20:29;;;;;;;8.50;7.10;;;;;;;16.25;59.98;102086.56;5058204;28;20412;-66
2021/06/14 00:22:55;;;;;;;8.20;7.40;;;;;;;16.21;59.87;102085.69;5058792;28;20838;-67
2021/06/14 00:25:24;;;;;;;8.87;7.73;;;;;;;16.14;60.14;102089.09;5058721;28;20236;-68
2021/06/14 00:27:50;;;;;;;10.40;7.53;;;;;;;16.00;60.54;102096.91;5058766;28;20165;-67
2021/06/14 00:30:22;;;;;;;7.63;6.30;;;;;;;15.95;60.98;102088.97;5058848;28;20421;-68
2021/06/14 00:32:48;;;;;;;7.73;6.93;;;;;;;16.21;60.18;102082.16;5058549;28;20503;-68
2021/06/14 00:35:13;;;;;;;11.20;10.00;;;;;;;16.36;59.16;102090.19;5058629;28;20451;-68
2021/06/14 00:37:38;;;;;;;8.00;6.80;;;;;;;16.10;60.22;102090.84;5059173;28;20173;-67
2021/06/14 00:40:05;;;;;;;14.03;8.40;;;;;;;16.33;59.46;102090.13;5058494;28;20188;-67
2021/06/14 00:42:30;;;;;;;9.83;7.23;;;;;;;16.28;59.59;102092.75;5058277;28;20183;-67
2021/06/14 00:44:55;;;;;;;9.80;7.73;;;;;;;16.27;59.54;102079.56;5058836;28;20420;-68
2021/06/14 00:47:21;;;;;;;8.30;6.80;;;;;;;16.16;60.00;102080.38;5058454;28;20181;-68
2021/06/14 00:49:46;;;;;;;14.93;12.17;;;;;;;16.03;60.64;102075.88;5058349;28;20381;-67
2021/06/14 00:52:11;;;;;;;8.17;6.77;;;;;;;15.99;60.72;102079.34;5058582;28;20193;-70
2021/06/14 00:54:37;;;;;;;13.30;10.37;;;;;;;16.13;59.84;102080.34;5058197;28;20200;-69
2021/06/14 00:57:02;;;;;;;17.00;11.77;;;;;;;16.03;60.44;102083.75;5057496;28;20170;-67
2021/06/14 00:59:28;;;;;;;8.90;7.53;;;;;;;15.53;61.97;102084.13;5058562;28;20597;-67
2021/06/14 01:01:53;;;;;;;8.23;7.43;;;;;;;15.65;61.01;102079.91;5057883;28;20170;-67
2021/06/14 01:04:19;;;;;;;11.03;7.70;;;;;;;15.88;59.96;102081.00;5058063;28;20174;-67
2021/06/14 01:06:48;;;;;;;10.00;6.20;;;;;;;15.80;60.22;102083.56;5058611;28;20173;-67
2021/06/14 01:09:13;;;;;;;7.30;6.53;;;;;;;15.82;59.50;102074.81;5058103;28;20166;-67
2021/06/14 01:11:45;;;;;;;10.50;8.33;;;;;;;15.89;59.56;102078.38;5057812;28;20500;-67
2021/06/14 01:14:18;;;;;;;10.50;7.63;;;;;;;15.94;59.36;102075.78;5057193;28;20215;-67
2021/06/14 01:16:51;;;;;;;12.37;8.60;;;;;;;16.01;58.94;102082.88;5057328;28;20469;-68
2021/06/14 01:19:44;;;;;;;7.80;7.00;;;;;;;15.86;59.33;102074.84;5057981;28;20408;-68
2021/06/14 01:22:12;;;;;;;10.80;8.77;;;;;;;15.80;59.42;102073.94;5057216;28;20416;-67
2021/06/14 01:24:52;;;;;;;11.27;7.00;;;;;;;15.58;59.62;102078.06;5057634;28;20518;-66
2021/06/14 01:27:36;;;;;;;8.47;7.57;;;;;;;15.77;59.24;102068.59;5057133;28;20418;-66
2021/06/14 01:30:06;;;;;;;9.47;7.73;;;;;;;15.73;59.18;102063.31;5057331;28;20398;-68
2021/06/14 01:32:31;;;;;;;7.90;6.57;;;;;;;15.76;58.91;102060.69;5057728;28;20762;-68
2021/06/14 01:34:57;;;;;;;10.60;7.87;;;;;;;15.83;58.78;102059.94;5057104;28;20480;-68
2021/06/14 01:37:22;;;;;;;7.63;6.67;;;;;;;15.78;58.74;102053.72;5057855;28;20258;-67
2021/06/14 01:39:48;;;;;;;7.03;6.33;;;;;;;15.78;59.07;102051.97;5057503;28;20650;-68
2021/06/14 01:42:15;;;;;;;10.90;8.17;;;;;;;15.65;59.72;102048.34;5057706;28;20180;-68
2021/06/14 01:44:42;;;;;;;7.63;6.57;;;;;;;15.53;59.23;102042.94;5056953;28;20465;-67
2021/06/14 01:47:08;;;;;;;8.47;6.77;;;;;;;15.63;59.20;102049.19;5057260;28;20404;-67
2021/06/14 01:49:33;;;;;;;10.37;6.20;;;;;;;15.83;58.09;102041.53;5057540;28;20416;-67
2021/06/14 01:51:59;;;;;;;7.10;6.40;;;;;;;15.37;59.05;102030.53;5056543;28;20467;-67
2021/06/14 01:54:24;;;;;;;7.23;6.50;;;;;;;15.49;59.06;102034.16;5057676;28;20204;-68
2021/06/14 01:56:52;;;;;;;11.50;7.67;;;;;;;15.52;59.30;102040.31;5056748;28;20185;-68
2021/06/14 01:59:28;;;;;;;9.90;7.50;;;;;;;15.50;58.82;102032.41;5056879;28;20176;-68
2021/06/14 02:01:55;;;;;;;7.77;6.97;;;;;;;15.34;59.29;102034.00;5056583;28;20408;-68
2021/06/14 02:04:20;;;;;;;7.90;6.77;;;;;;;15.37;59.35;102028.78;5057432;28;20408;-67
2021/06/14 02:06:49;;;;;;;6.87;6.20;;;;;;;15.51;58.93;102025.44;5057848;28;20805;-67
2021/06/14 02:09:16;;;;;;;7.60;6.90;;;;;;;15.71;58.45;102017.69;5056766;28;20166;-68
2021/06/14 02:11:45;;;;;;;6.90;6.20;;;;;;;15.76;57.97;102018.63;5057211;28;20469;-67
2021/06/14 02:14:14;;;;;;;8.83;6.73;;;;;;;15.64;58.52;102030.81;5057763;28;20806;-67
2021/06/14 02:16:41;;;;;;;8.10;6.50;;;;;;;15.66;58.34;102022.94;5056496;28;20420;-67
2021/06/14 02:19:07;;;;;;;7.30;6.20;;;;;;;15.69;57.84;102011.56;5056563;28;20503;-67
2021/06/14 02:21:32;;;;;;;10.40;7.20;;;;;;;15.56;58.48;102007.94;5057559;28;20765;-67
2021/06/14 02:23:57;;;;;;;7.50;6.80;;;;;;;15.84;57.40;102003.81;5057030;28;20473;-67
2021/06/14 02:26:23;;;;;;;9.97;7.00;;;;;;;15.60;58.20;102001.84;5057114;28;20268;-67
2021/06/14 02:28:48;;;;;;;7.90;6.30;;;;;;;15.74;58.09;101999.34;5057758;28;20435;-68
2021/06/14 02:31:13;;;;;;;8.77;6.50;;;;;;;15.53;58.54;102005.28;5056993;28;20236;-67
2021/06/14 02:33:39;;;;;;;6.63;6.03;;;;;;;15.43;58.92;102006.94;5057012;28;20606;-67
2021/06/14 02:36:05;;;;;;;11.50;10.10;;;;;;;15.49;59.25;102010.53;5057665;28;20162;-67
2021/06/14 02:38:30;;;;;;;16.77;9.63;;;;;;;15.53;58.93;102000.03;5057189;28;20196;-67
2021/06/14 02:40:56;;;;;;;9.23;7.10;;;;;;;15.67;58.87;102003.66;5056417;28;20173;-67
2021/06/14 02:43:22;;;;;;;11.50;8.70;;;;;;;15.38;59.62;102006.88;5059688;28;20437;-67
2021/06/14 02:45:48;;;;;;;10.33;7.70;;;;;;;15.48;59.31;101995.59;5060708;28;20474;-68
2021/06/14 02:48:14;;;;;;;17.83;14.47;;;;;;;15.32;60.24;101991.06;5060747;28;20173;-67
2021/06/14 02:50:40;;;;;;;11.53;10.13;;;;;;;15.64;59.16;101987.84;5060936;28;20470;-67
2021/06/14 02:53:08;;;;;;;19.53;15.53;;;;;;;15.43;59.72;101994.69;5059787;28;20412;-68
2021/06/14 02:55:36;;;;;;;12.10;9.97;;;;;;;15.52;59.68;101999.16;5059656;28;20189;-67
2021/06/14 02:58:02;;;;;;;34.67;24.70;;;;;;;15.54;59.51;101992.16;5061089;28;20801;-68
2021/06/14 03:00:32;;;;;;;12.43;8.63;;;;;;;15.33;60.25;101995.47;5060534;28;20390;-66
2021/06/14 03:03:03;;;;;;;16.30;13.00;;;;;;;17.55;53.70;101984.41;5060290;28;20416;-65
2021/06/14 03:05:29;;;;;;;15.80;12.07;;;;;;;17.81;52.58;101989.69;5059632;28;20652;-65
2021/06/14 03:07:57;;;;;;;13.20;9.13;;;;;;;18.44;50.59;101987.00;5060359;28;20420;-65
2021/06/14 03:10:23;;;;;;;12.43;10.53;;;;;;;18.56;50.03;101986.03;5060648;28;20459;-64
2021/06/14 03:12:52;;;;;;;14.73;10.70;;;;;;;18.84;49.20;101984.16;5059601;28;20406;-66
2021/06/14 03:15:18;;;;;;;22.93;17.60;;;;;;;18.39;50.27;101982.56;5060299;28;20501;-65
2021/06/14 03:17:43;;;;;;;14.50;11.67;;;;;;;19.13;48.45;101975.25;5060520;28;20408;-65
2021/06/14 03:20:09;;;;;;;16.33;11.70;;;;;;;19.16;48.15;101977.84;5059466;28;20416;-65
2021/06/14 03:22:34;;;;;;;14.90;11.80;;;;;;;19.22;47.53;101976.06;5059210;28;20254;-65
2021/06/14 03:24:59;;;;;;;17.20;12.30;;;;;;;18.61;49.50;101972.84;5059179;28;20316;-66
2021/06/14 03:27:25;;;;;;;16.83;11.50;;;;;;;18.66;48.51;101974.56;5060021;28;20173;-66
2021/06/14 03:29:52;;;;;;;11.33;8.80;;;;;;;18.73;48.65;101977.19;5059438;28;20174;-66
2021/06/14 03:32:18;;;;;;;9.00;7.33;;;;;;;19.46;46.71;101967.94;5059010;28;20220;-66
2021/06/14 03:34:44;;;;;;;7.93;6.47;;;;;;;19.45;46.55;101970.63;5059520;28;20420;-66
2021/06/14 03:37:09;;;;;;;8.77;6.20;;;;;;;20.21;44.59;101967.31;5060265;28;20828;-65
2021/06/14 03:39:35;;;;;;;11.40;8.50;;;;;;;20.91;43.01;101956.75;5059783;28;20189;-66
2021/06/14 03:42:00;;;;;;;9.77;6.30;;;;;;;21.96;40.58;101949.75;5058787;28;20177;-66
2021/06/14 03:44:26;;;;;;;10.13;5.77;;;;;;;22.30;40.03;101952.66;5059922;28;20563;-67
2021/06/14 03:46:51;;;;;;;8.77;7.50;;;;;;;21.95;40.55;101948.03;5059695;28;20178;-66
2021/06/14 03:49:16;;;;;;;7.83;5.97;;;;;;;22.42;39.42;101942.69;5059615;28;20574;-67
2021/06/14 03:51:41;;;;;;;7.00;6.30;;;;;;;22.62;39.02;101944.94;5059801;28;20547;-65
2021/06/14 03:54:07;;;;;;;7.93;6.27;;;;;;;22.70;38.75;101933.25;5059081;28;20185;-66
2021/06/14 03:56:34;;;;;;;6.00;5.27;;;;;;;23.27;37.50;101924.88;5059345;28;20172;-65
2021/06/14 03:59:00;;;;;;;6.57;5.60;;;;;;;23.66;37.10;101928.28;5059957;28;20260;-66
2021/06/14 04:01:25;;;;;;;5.97;5.37;;;;;;;23.72;36.85;101924.59;5059187;28;20463;-66
2021/06/14 04:06:27;;;;;;;5.27;4.77;;;;;;;24.16;36.13;101924.31;5059310;28;20176;-66
2021/06/14 04:08:52;;;;;;;7.17;4.80;;;;;;;24.17;36.04;101926.94;5059165;28;20424;-66
2021/06/14 04:11:18;;;;;;;7.03;4.80;;;;;;;24.33;35.71;101926.50;5059455;28;20458;-66
2021/06/14 04:13:44;;;;;;;7.03;4.97;;;;;;;24.46;35.37;101933.19;5059070;28;20568;-67
2021/06/14 04:16:09;;;;;;;6.27;5.10;;;;;;;25.00;34.42;101930.72;5058932;28;20166;-66
2021/06/14 04:18:34;;;;;;;7.30;5.60;;;;;;;24.63;34.77;101935.41;5059391;28;20491;-66
2021/06/14 04:21:00;;;;;;;5.40;4.83;;;;;;;24.75;34.91;101936.81;5058946;28;20177;-66
2021/06/14 04:23:25;;;;;;;9.17;5.40;;;;;;;24.83;34.58;101936.56;5058681;28;20181;-66
2021/06/14 04:25:50;;;;;;;5.70;5.10;;;;;;;24.82;34.57;101941.03;5058846;28;20221;-66
2021/06/14 04:28:16;;;;;;;6.97;5.43;;;;;;;25.15;33.91;101932.88;5058771;28;20184;-66
2021/06/14 04:30:41;;;;;;;5.77;5.17;;;;;;;25.42;33.09;101927.56;5059020;28;20206;-66
2021/06/14 04:33:06;;;;;;;7.23;5.30;;;;;;;24.50;34.76;101940.19;5058546;28;20170;-67
2021/06/14 04:35:32;;;;;;;8.77;4.80;;;;;;;24.73;34.08;101948.47;5058580;28;20508;-66
2021/06/14 04:37:57;;;;;;;9.80;5.03;;;;;;;25.12;33.35;101949.00;5059011;28;20173;-66
2021/06/14 04:40:22;;;;;;;5.50;5.00;;;;;;;25.48;32.66;101954.09;5058822;28;20174;-66
2021/06/14 04:42:48;;;;;;;9.30;5.40;;;;;;;24.75;33.81;101954.59;5058412;28;20546;-66
2021/06/14 04:45:14;;;;;;;7.07;4.77;;;;;;;25.34;32.89;101961.66;5058904;28;20200;-66
2021/06/14 04:47:39;;;;;;;8.13;5.50;;;;;;;25.24;32.86;101950.41;5058379;28;20173;-66
2021/06/14 04:50:05;;;;;;;7.50;5.00;;;;;;;25.03;33.46;101958.19;5058412;28;20491;-65
2021/06/14 04:52:31;;;;;;;9.30;5.10;;;;;;;25.22;33.01;101942.44;5057748;28;20255;-65
2021/06/14 04:54:56;;;;;;;6.20;5.00;;;;;;;25.46;32.31;101952.38;5058335;28;20825;-66
2021/06/14 04:57:22;;;;;;;6.07;5.13;;;;;;;25.65;32.61;101955.28;5058283;28;20551;-66
2021/06/14 04:59:47;;;;;;;7.23;5.97;;;;;;;26.84;30.54;101941.13;5058754;28;20197;-66
2021/06/14 05:02:12;;;;;;;8.63;5.60;;;;;;;26.25;31.28;101953.19;5058139;28;20249;-66
2021/06/14 05:04:38;;;;;;;9.23;5.70;;;;;;;26.76;30.23;101948.59;5057691;28;20219;-67
2021/06/14 05:07:03;;;;;;;7.83;5.30;;;;;;;26.92;30.24;101946.19;5058299;28;20224;-66
2021/06/14 05:09:28;;;;;;;6.13;4.90;;;;;;;27.26;29.60;101950.16;5058149;28;20264;-66
2021/06/14 05:11:54;;;;;;;5.40;4.90;;;;;;;27.26;29.48;101949.31;5057943;28;20205;-67
2021/06/14 05:14:19;;;;;;;6.90;5.20;;;;;;;27.14;29.79;101948.00;5058604;28;20451;-67
2021/06/14 05:16:44;;;;;;;8.10;5.20;;;;;;;27.04;29.62;101952.88;5058047;28;20195;-68
2021/06/14 05:19:10;;;;;;;7.73;5.23;;;;;;;27.13;29.52;101954.28;5057881;28;20170;-68
2021/06/14 05:21:36;;;;;;;8.27;4.93;;;;;;;25.41;32.73;101959.66;5058301;28;20194;-66
2021/06/14 05:24:02;;;;;;;7.00;4.83;;;;;;;26.83;30.51;101951.91;5057660;28;20510;-66
2021/06/14 05:26:27;;;;;;;6.03;5.33;;;;;;;27.42;29.67;101944.22;5057658;28;20428;-67
2021/06/14 05:28:53;;;;;;;7.20;5.23;;;;;;;26.25;31.25;101941.63;5058352;28;20491;-66
2021/06/14 05:31:18;;;;;;;7.40;5.23;;;;;;;24.90;33.79;101943.47;5057768;28;20629;-66
2021/06/14 05:33:43;;;;;;;14.07;6.10;;;;;;;25.74;32.17;101940.75;5057630;28;20205;-67
2021/06/14 05:36:09;;;;;;;11.47;5.30;;;;;;;26.71;30.42;101942.56;5058236;28;20426;-66
2021/06/14 05:38:34;;;;;;;7.03;5.27;;;;;;;25.86;31.23;101941.19;5058560;28;20169;-69
2021/06/14 05:40:59;;;;;;;8.00;6.17;;;;;;;25.18;33.47;101950.59;5058197;28;20173;-69
2021/06/14 05:43:24;;;;;;;8.10;5.40;;;;;;;27.09;30.08;101932.16;5057985;28;20170;-68
2021/06/14 05:45:50;;;;;;;7.83;5.43;;;;;;;26.16;31.10;101932.16;5057758;28;20188;-67
2021/06/14 05:48:15;;;;;;;5.30;4.40;;;;;;;28.00;28.10;101922.94;5057769;28;20184;-69
2021/06/14 05:50:41;;;;;;;6.83;4.47;;;;;;;27.65;28.47;101924.47;5057931;28;20247;-68
2021/06/14 05:53:06;;;;;;;6.60;4.20;;;;;;;28.44;27.85;101918.28;5056588;28;20170;-68
2021/06/14 05:55:32;;;;;;;8.37;4.67;;;;;;;28.40;26.83;101913.06;5057593;28;20226;-67
2021/06/14 05:57:57;;;;;;;7.40;4.07;;;;;;;28.64;27.29;101923.59;5058090;28;20200;-66
2021/06/14 06:00:22;;;;;;;8.80;4.40;;;;;;;26.64;29.87;101923.19;5057579;28;20184;-69
2021/06/14 06:02:48;;;;;;;5.83;4.20;;;;;;;27.95;27.84;101924.06;5057397;28;20182;-68
2021/06/14 06:05:13;;;;;;;7.90;4.00;;;;;;;28.37;27.04;101928.41;5057823;28;20161;-67
2021/06/14 06:07:38;;;;;;;7.03;4.17;;;;;;;26.83;29.53;101926.03;5057215;28;20173;-67
2021/06/14 06:10:06;;;;;;;9.23;3.80;;;;;;;28.10;28.23;101931.41;5057292;28;20200;-65
2021/06/14 06:12:31;;;;;;;5.10;3.53;;;;;;;28.64;26.80;101915.53;5057241;28;20208;-66
2021/06/14 06:14:56;;;;;;;4.70;3.60;;;;;;;29.00;26.68;101913.84;5056591;28;20412;-66
2021/06/14 06:17:22;;;;;;;6.23;3.90;;;;;;;28.59;27.16;101914.88;5060028;28;20412;-67
2021/06/14 06:19:47;;;;;;;4.83;3.80;;;;;;;28.88;26.29;101909.94;5061624;28;20249;-67
2021/06/14 06:22:13;;;;;;;5.10;3.97;;;;;;;25.75;30.72;101916.66;5060866;28;20205;-68
2021/06/14 06:24:38;;;;;;;6.30;4.53;;;;;;;27.18;28.97;101913.03;5059291;28;20261;-69
2021/06/14 06:27:04;;;;;;;10.03;4.60;;;;;;;27.21;28.55;101910.22;5061222;28;20408;-69
2021/06/14 06:29:29;;;;;;;7.17;4.30;;;;;;;27.00;29.46;101903.94;5060992;28;20543;-69
2021/06/14 06:31:55;;;;;;;6.80;4.23;;;;;;;29.86;25.40;101885.28;5060607;28;20209;-69
2021/06/14 06:34:20;;;;;;;5.07;4.23;;;;;;;29.92;25.23;101881.38;5061376;28;20203;-68
2021/06/14 06:36:46;;;;;;;6.93;4.40;;;;;;;31.53;23.57;101873.09;5060939;28;20166;-68
2021/06/14 06:39:11;;;;;;;6.30;4.07;;;;;;;29.02;26.29;101879.72;5060851;28;20177;-69
2021/06/14 06:41:36;;;;;;;5.30;4.10;;;;;;;31.40;23.85;101875.63;5060996;28;20475;-68
2021/06/14 06:44:01;;;;;;;10.47;5.03;;;;;;;31.67;23.10;101874.94;5060595;28;20205;-68
2021/06/14 06:46:27;;;;;;;5.47;4.97;;;;;;;29.53;25.71;101871.78;5060840;28;20184;-68
2021/06/14 06:48:52;;;;;;;5.53;4.13;;;;;;;29.11;26.09;101873.88;5060989;28;20197;-70
2021/06/14 06:51:17;;;;;;;7.93;4.57;;;;;;;31.22;23.72;101869.56;5060398;28;20292;-69
2021/06/14 06:53:43;;;;;;;5.67;4.57;;;;;;;28.87;26.00;101882.19;5060249;28;20574;-69
2021/06/14 06:56:08;;;;;;;6.30;4.80;;;;;;;28.59;26.83;101881.78;5060740;28;20185;-69
2021/06/14 06:58:33;;;;;;;5.50;4.30;;;;;;;31.23;23.72;101871.28;5059796;28;20185;-68
2021/06/14 07:00:59;;;;;;;5.77;4.67;;;;;;;29.61;25.78;101868.69;5060561;28;20205;-68
2021/06/14 07:03:24;;;;;;;4.30;3.90;;;;;;;30.30;25.06;101864.09;5060773;28;20204;-68
2021/06/14 07:05:50;;;;;;;7.30;4.50;;;;;;;30.93;23.95;101856.91;5060252;28;20181;-68
2021/06/14 07:08:15;;;;;;;6.33;4.40;;;;;;;31.02;23.84;101851.00;5060311;28;20203;-68
2021/06/14 07:10:41;;;;;;;5.50;4.23;;;;;;;32.40;22.13;101841.56;5060853;28;20255;-68
2021/06/14 07:13:07;;;;;;;7.37;4.70;;;;;;;31.36;23.73;101840.91;5059924;28;20414;-68
2021/06/14 07:15:33;;;;;;;4.97;4.57;;;;;;;29.47;25.52;101851.47;5060037;28;20177;-69
2021/06/14 07:17:58;;;;;;;7.07;4.67;;;;;;;32.35;22.45;101837.44;5060401;28;20215;-70
2021/06/14 07:20:23;;;;;;;6.50;4.83;;;;;;;30.55;24.61;101842.03;5060105;28;20177;-69
2021/06/14 07:22:49;;;;;;;7.27;5.17;;;;;;;30.82;24.55;101838.72;5059873;28;20184;-69
2021/06/14 07:25:14;;;;;;;5.63;4.47;;;;;;;31.92;22.78;101827.59;5060074;28;20232;-69
2021/06/14 07:27:41;;;;;;;4.90;4.47;;;;;;;32.22;22.24;101835.56;5059439;28;20165;-70
2021/06/14 07:30:09;;;;;;;5.80;5.00;;;;;;;30.03;25.32;101832.38;5060043;28;20535;-69
2021/06/14 07:32:34;;;;;;;5.27;4.73;;;;;;;31.99;23.17;101841.50;5059263;28;20475;-69
2021/06/14 07:35:00;;;;;;;5.43;4.83;;;;;;;30.65;23.91;101831.59;5059668;28;20412;-67
2021/06/14 07:37:25;;;;;;;11.10;5.30;;;;;;;31.75;23.09;101834.03;5060085;28;20260;-68
2021/06/14 07:39:50;;;;;;;5.53;4.90;;;;;;;32.52;22.33;101829.09;5059724;28;20177;-68
2021/06/14 07:42:16;;;;;;;8.40;4.90;;;;;;;28.46;27.07;101836.78;5059519;28;20185;-68
2021/06/14 07:44:42;;;;;;;7.70;5.20;;;;;;;31.29;23.56;101816.16;5059768;28;20193;-68
2021/06/14 07:47:07;;;;;;;8.07;5.60;;;;;;;32.51;22.29;101811.16;5058746;28;20260;-67
2021/06/14 07:49:35;;;;;;;6.37;5.00;;;;;;;32.06;23.13;101802.41;5059344;28;20438;-67
2021/06/14 07:52:00;;;;;;;5.93;5.00;;;;;;;32.40;23.11;101811.88;5059922;28;20583;-70
2021/06/14 07:54:25;;;;;;;6.50;5.10;;;;;;;32.44;22.62;101804.47;5059198;28;20511;-68
2021/06/14 07:56:52;;;;;;;7.63;6.93;;;;;;;31.31;23.78;101797.22;5059208;28;20195;-68
2021/06/14 07:59:18;;;;;;;8.63;7.77;;;;;;;32.22;22.40;101789.69;5059337;28;20184;-68
2021/06/14 08:01:43;;;;;;;9.20;5.10;;;;;;;32.42;22.37;101795.56;5059039;28;20687;-69
2021/06/14 08:04:08;;;;;;;7.80;7.00;;;;;;;32.03;22.29;101789.13;5058948;28;20520;-68
2021/06/14 08:06:34;;;;;;;7.37;4.50;;;;;;;32.06;22.31;101778.13;5059459;28;20480;-68
2021/06/14 08:09:02;;;;;;;6.23;5.03;;;;;;;31.62;22.96;101780.00;5058988;28;20178;-68
2021/06/14 08:11:28;;;;;;;6.17;4.37;;;;;;;31.60;23.10;101771.16;5058777;28;20198;-67
2021/06/14 08:13:54;;;;;;;8.53;5.83;;;;;;;32.35;22.87;101761.88;5059370;28;20408;-68
2021/06/14 08:16:19;;;;;;;6.73;5.07;;;;;;;32.01;22.22;101759.53;5058867;28;20434;-68
2021/06/14 08:18:47;;;;;;;9.50;5.27;;;;;;;30.73;24.03;101772.84;5058847;28;20201;-68
2021/06/14 08:26:29;;;;;;;6.70;4.93;;;;;;;33.18;21.29;101742.72;5058937;28;20735;-68
2021/06/14 08:28:57;;;;;;;7.90;5.17;;;;;;;32.20;22.34;101742.19;5058808;28;20412;-68
2021/06/14 08:31:23;;;;;;;6.03;4.93;;;;;;;31.63;22.25;101744.00;5058692;28;20463;-68
2021/06/14 08:33:48;;;;;;;6.27;5.00;;;;;;;32.58;21.66;101738.72;5059067;28;20669;-68
2021/06/14 08:36:14;;;;;;;6.90;5.23;;;;;;;31.35;23.35;101739.47;5058566;28;20416;-69
2021/06/14 08:38:39;;;;;;;7.23;5.20;;;;;;;31.61;23.28;101729.78;5058493;28;20165;-69
2021/06/14 08:41:05;;;;;;;9.10;5.70;;;;;;;31.67;22.97;101728.53;5057930;28;20219;-69
2021/06/14 08:43:30;;;;;;;5.10;4.67;;;;;;;30.98;23.47;101720.19;5048283;28;20422;-69
2021/06/14 08:45:57;;;;;;;6.17;4.93;;;;;;;30.31;24.30;101720.53;5037375;28;20504;-69
2021/06/14 08:48:23;;;;;;;6.57;5.20;;;;;;;31.97;23.17;101717.56;5042486;28;20257;-68
2021/06/14 08:50:48;;;;;;;5.87;4.87;;;;;;;33.64;21.05;101707.97;5042631;28;20558;-68
2021/06/14 08:53:13;;;;;;;7.13;5.20;;;;;;;32.91;22.05;101705.88;5053505;28;20269;-68
2021/06/14 08:55:39;;;;;;;9.97;5.00;;;;;;;32.73;22.09;101704.44;5052517;28;20268;-67
2021/06/14 08:58:05;;;;;;;8.50;5.43;;;;;;;32.29;22.14;101714.59;5043707;28;20185;-69
2021/06/14 09:00:31;;;;;;;8.90;5.80;;;;;;;32.05;23.14;101701.72;5045171;28;20217;-66
2021/06/14 09:02:57;;;;;;;6.20;5.17;;;;;;;30.30;24.83;101710.75;5040397;28;20758;-68
2021/06/14 09:05:23;;;;;;;5.20;4.70;;;;;;;31.67;23.08;101701.56;5038000;28;20425;-69
2021/06/14 09:07:49;;;;;;;10.63;5.13;;;;;;;30.81;24.22;101714.00;5037912;28;20170;-69
2021/06/14 09:10:28;;;;;;;5.40;4.90;;;;;;;31.09;23.93;101698.88;5038404;28;20708;-68
2021/06/14 09:12:54;;;;;;;5.93;5.07;;;;;;;31.92;23.23;101684.66;5046893;28;20727;-67
2021/06/14 09:15:25;;;;;;;5.87;5.27;;;;;;;32.40;22.60;101685.03;5057953;28;20412;-68
2021/06/14 09:17:56;;;;;;;6.53;5.00;;;;;;;30.67;24.62;101687.06;5053500;28;20456;-68
2021/06/14 09:20:24;;;;;;;10.57;5.13;;;;;;;30.81;24.72;101686.22;5047918;28;20475;-68
2021/06/14 09:22:49;;;;;;;7.03;5.33;;;;;;;31.95;23.56;101679.06;5057570;28;20420;-67
2021/06/14 09:25:16;;;;;;;6.17;5.57;;;;;;;32.04;23.29;101669.47;5057497;28;20509;-66
2021/06/14 09:27:50;;;;;;;7.27;4.73;;;;;;;32.27;22.54;101670.66;5055133;28;20542;-69
2021/06/14 09:30:22;;;;;;;5.83;5.23;;;;;;;31.78;23.35;101665.81;5037628;28;20420;-71
2021/06/14 09:32:53;;;;;;;8.03;4.60;;;;;;;32.24;22.73;101677.16;5041294;28;20447;-67
2021/06/14 09:35:19;;;;;;;5.77;4.60;;;;;;;31.08;24.12;101667.50;5037536;28;20420;-68
2021/06/14 09:38:04;;;;;;;8.10;5.00;;;;;;;31.23;23.95;101661.16;5037641;28;20413;-71
2021/06/14 09:40:34;;;;;;;6.70;4.73;;;;;;;33.11;21.63;101660.38;5037664;28;20417;-70
2021/06/14 09:43:00;;;;;;;6.53;4.97;;;;;;;31.88;23.40;101666.91;5037522;28;20669;-68
2021/06/14 09:45:26;;;;;;;10.27;5.07;;;;;;;32.18;23.25;101660.50;5037573;28;20728;-67
2021/06/14 09:47:54;;;;;;;5.53;4.97;;;;;;;32.65;22.91;101655.47;5037678;28;20417;-68
2021/06/14 09:50:28;;;;;;;6.30;5.37;;;;;;;31.78;23.28;101650.50;5057354;28;20169;-68
2021/06/14 09:53:11;;;;;;;5.70;5.10;;;;;;;32.31;23.61;101647.03;5061094;28;20412;-68
2021/06/14 09:55:38;;;;;;;6.00;4.70;;;;;;;31.12;24.62;101644.84;5061777;28;20663;-68
2021/06/14 09:58:14;;;;;;;6.33;4.83;;;;;;;31.10;24.52;101644.03;5058073;28;20527;-67
2021/06/14 10:00:52;;;;;;;6.43;4.47;;;;;;;31.54;24.00;101626.88;5045594;28;20440;-69
2021/06/14 10:03:17;;;;;;;5.30;4.80;;;;;;;32.20;23.10;101628.88;5042208;28;20475;-67
2021/06/14 10:05:44;;;;;;;8.60;5.73;;;;;;;33.53;21.19;101625.81;5041129;28;20451;-66
2021/06/14 10:08:10;;;;;;;5.50;5.00;;;;;;;32.68;22.47;101629.16;5041217;28;20202;-66
2021/06/14 10:10:39;;;;;;;6.63;4.70;;;;;;;32.66;22.17;101632.94;5054199;28;20508;-67
2021/06/14 10:13:05;;;;;;;6.40;4.57;;;;;;;30.57;24.62;101644.53;5061427;28;20217;-67
2021/06/14 10:15:38;;;;;;;6.13;4.40;;;;;;;31.71;24.13;101630.31;5061388;28;20427;-66
2021/06/14 10:18:08;;;;;;;5.03;4.50;;;;;;;31.35;24.05;101618.22;5061245;28;20419;-66
2021/06/14 10:20:36;;;;;;;5.80;5.03;;;;;;;32.79;22.53;101614.91;5051312;28;20432;-68
2021/06/14 10:23:02;;;;;;;7.63;4.97;;;;;;;32.77;22.92;101616.84;5024146;28;20417;-67
2021/06/14 10:25:28;;;;;;;8.07;5.07;;;;;;;33.41;21.69;101626.75;5040960;28;20476;-66
2021/06/14 10:27:54;;;;;;;6.40;4.67;;;;;;;32.37;23.21;101625.03;5040150;28;20413;-67
2021/06/14 10:30:21;;;;;;;5.20;4.67;;;;;;;31.37;24.25;101633.34;5043497;28;20563;-67
2021/06/14 10:32:46;;;;;;;7.10;5.13;;;;;;;32.48;22.30;101633.22;5060853;28;20428;-67
2021/06/14 10:35:15;;;;;;;5.70;4.70;;;;;;;32.66;22.38;101638.31;5041872;28;20833;-66
2021/06/14 10:37:53;;;;;;;5.83;4.43;;;;;;;31.36;24.72;101639.69;5055736;28;20208;-67
2021/06/14 10:40:26;;;;;;;4.80;4.40;;;;;;;31.87;23.68;101639.09;5049430;28;20686;-66
2021/06/14 10:42:53;;;;;;;5.87;4.63;;;;;;;32.39;23.30;101633.88;5040502;28;20436;-67
2021/06/14 10:45:23;;;;;;;7.23;5.30;;;;;;;31.95;23.80;101632.31;5045078;28;20435;-67
2021/06/14 10:47:49;;;;;;;5.50;5.00;;;;;;;31.80;23.54;101640.47;5046802;28;20438;-67
2021/06/14 10:50:18;;;;;;;12.10;5.27;;;;;;;31.37;24.05;101641.41;5056529;28;20430;-67
2021/06/14 10:52:46;;;;;;;5.00;4.47;;;;;;;30.35;25.59;101642.25;5047889;28;20260;-67
2021/06/14 10:55:14;;;;;;;5.70;5.10;;;;;;;30.10;25.54;101634.78;5040884;28;20455;-66
2021/06/14 10:57:41;;;;;;;5.53;4.93;;;;;;;30.21;25.70;101632.31;5040899;28;20436;-65
2021/06/14 11:00:27;;;;;;;7.90;5.10;;;;;;;30.98;25.15;101625.94;5048649;28;20475;-66
2021/06/14 11:02:52;;;;;;;5.60;5.03;;;;;;;31.31;24.64;101630.16;5054200;28;20503;-66
2021/06/14 11:05:36;;;;;;;5.60;4.47;;;;;;;31.49;24.62;101622.75;5040447;28;20464;-67
2021/06/14 11:08:15;;;;;;;8.80;4.90;;;;;;;31.23;24.59;101633.38;5040351;28;20567;-67
2021/06/14 11:10:41;;;;;;;5.00;4.50;;;;;;;30.95;25.17;101639.59;5040340;28;20496;-67
2021/06/14 11:13:09;;;;;;;6.13;5.00;;;;;;;31.05;24.75;101627.31;5039670;28;20477;-66
2021/06/14 11:15:35;;;;;;;8.43;5.33;;;;;;;31.08;25.01;101624.41;5044918;28;20464;-66
2021/06/14 11:18:05;;;;;;;6.53;5.30;;;;;;;30.05;26.17;101624.31;5041192;28;20448;-67
2021/06/14 11:20:37;;;;;;;5.27;4.77;;;;;;;29.59;26.97;101626.06;5039637;28;20228;-66
2021/06/14 11:23:03;;;;;;;6.20;4.60;;;;;;;29.99;26.47;101626.50;5039677;28;20440;-66
2021/06/14 11:25:30;;;;;;;5.70;5.10;;;;;;;29.31;27.28;101619.53;5039712;28;20770;-66
2021/06/14 11:28:06;;;;;;;5.40;4.90;;;;;;;28.97;27.80;101602.56;5040332;28;20447;-65